Terminal Aerodrome Forecast
Issued by NWS Sterling, VA

Current Version | Previous Version | Graphics & Text | Print | Product List | Glossary On
Versions: 1 2 3 4 5 6 7 8 9 10 11 12 13 14 15 16 17 18 19 20 21 22 23 24
000
FTUS41 KLWX 201700 RRA
TAFIAD
TAF
KIAD 201742Z 2018/2124 03006KT P6SM BKN050
     FM202300 09005KT P6SM BKN050
     FM210900 VRB03KT 5SM BR SCT015 OVC025
     FM211200 12004KT 5SM BR BKN008
     FM211500 14005KT P6SM BKN025 BKN050
     FM211800 17006KT P6SM BKN050=

USA.gov is the U.S. government's official web portal to all federal, state and local government web resources and services.